St. Thomas, Canada
Current Conditions -  °F | °C
As of 1:00 AM on Friday 31 Oct 2014 (Local Time) from CYXU Reporting Station
Overcast Overcast  
Wind Chill: 39°   Ceiling: 5000
Heat Index: 39°   Visibility: 15mi
Dew Point: 37°   Wind: 2mph
Humidity: 93%   Direction: 140°SE
Pressure: 29.99"   Gusts: NA
Location:  42.78°N, 81.19°W
Report Text: CYXU 310500Z 14002KT 15SM OVC050 04/03 A2999 RMK SC8 SLP161
Loading
Personal Weather Stations






























Interactive Weather Map
Tropical Storm Tracking
New forecast layout! Learn more

10-Day Weather Forecast

Advertisements
Track Severe Weather on mobile